Terminal Aerodrome Forecast
Issued by NWS

Home | Current Version | Previous Version | Text Only | Print | Product List | Glossary On
Versions: 1 2 3 4 5 6 7 8 9 10 11 12 13 14 15 16 17 18
000
FTUS43 KJKL 302007 AAA
TAFSJS
TAF AMD
KSJS 302007Z 3020/0118 10004KT 6SM -SHRA OVC007
     FM010100 17004KT 5SM -SHRA VCTS OVC025CB
     FM010700 VRB03KT 4SM -SHRA VCTS OVC020CB
     FM010900 VRB03KT 3SM -SHRA OVC030
     FM011300 18004KT P6SM VCSH BKN050=

USA.gov is the U.S. government's official web portal to all federal, state and local government web resources and services.